sensor_id;sensor_type;location;lat;lon;timestamp;P1;durP1;ratioP1;P2;durP2;ratioP2
19525;SDS011;9907;42.676;26.348;2022-09-24T00:00:46;2.10;;;1.90;;
19525;SDS011;9907;42.676;26.348;2022-09-24T00:03:17;1.80;;;1.70;;
19525;SDS011;9907;42.676;26.348;2022-09-24T00:05:46;1.70;;;1.50;;
19525;SDS011;9907;42.676;26.348;2022-09-24T00:08:13;1.90;;;1.80;;
19525;SDS011;9907;42.676;26.348;2022-09-24T00:10:41;2.97;;;1.97;;
19525;SDS011;9907;42.676;26.348;2022-09-24T00:13:08;1.50;;;1.40;;
19525;SDS011;9907;42.676;26.348;2022-09-24T00:15:43;1.73;;;1.63;;
19525;SDS011;9907;42.676;26.348;2022-09-24T00:18:11;2.33;;;1.73;;
19525;SDS011;9907;42.676;26.348;2022-09-24T00:20:37;1.97;;;1.60;;
19525;SDS011;9907;42.676;26.348;2022-09-24T00:23:04;1.87;;;1.77;;
19525;SDS011;9907;42.676;26.348;2022-09-24T00:25:30;1.87;;;1.77;;
19525;SDS011;9907;42.676;26.348;2022-09-24T00:28:14;2.10;;;1.90;;
19525;SDS011;9907;42.676;26.348;2022-09-24T00:30:41;1.83;;;1.73;;
19525;SDS011;9907;42.676;26.348;2022-09-24T00:33:08;2.47;;;2.07;;
19525;SDS011;9907;42.676;26.348;2022-09-24T00:35:34;2.23;;;1.87;;
19525;SDS011;9907;42.676;26.348;2022-09-24T00:38:01;2.03;;;1.87;;
19525;SDS011;9907;42.676;26.348;2022-09-24T00:40:27;1.67;;;1.50;;
19525;SDS011;9907;42.676;26.348;2022-09-24T00:42:57;1.70;;;1.60;;
19525;SDS011;9907;42.676;26.348;2022-09-24T00:45:23;1.97;;;1.80;;
19525;SDS011;9907;42.676;26.348;2022-09-24T00:47:49;2.03;;;1.57;;
19525;SDS011;9907;42.676;26.348;2022-09-24T00:50:23;2.73;;;1.70;;
19525;SDS011;9907;42.676;26.348;2022-09-24T00:52:52;2.17;;;2.00;;
19525;SDS011;9907;42.676;26.348;2022-09-24T00:55:19;1.80;;;1.70;;
19525;SDS011;9907;42.676;26.348;2022-09-24T00:57:47;1.80;;;1.70;;
19525;SDS011;9907;42.676;26.348;2022-09-24T01:00:15;1.83;;;1.60;;
19525;SDS011;9907;42.676;26.348;2022-09-24T01:02:41;3.83;;;1.80;;
19525;SDS011;9907;42.676;26.348;2022-09-24T01:05:10;1.90;;;1.80;;
19525;SDS011;9907;42.676;26.348;2022-09-24T01:07:36;2.03;;;1.80;;
19525;SDS011;9907;42.676;26.348;2022-09-24T01:10:01;1.90;;;1.80;;
19525;SDS011;9907;42.676;26.348;2022-09-24T01:15:27;1.60;;;1.50;;
19525;SDS011;9907;42.676;26.348;2022-09-24T01:18:10;1.63;;;1.53;;
19525;SDS011;9907;42.676;26.348;2022-09-24T01:21:07;1.70;;;1.60;;
19525;SDS011;9907;42.676;26.348;2022-09-24T01:23:55;3.20;;;2.00;;
19525;SDS011;9907;42.676;26.348;2022-09-24T01:27:29;2.73;;;1.90;;
19525;SDS011;9907;42.676;26.348;2022-09-24T01:29:43;2.00;;;1.80;;
19525;SDS011;9907;42.676;26.348;2022-09-24T01:34:41;1.97;;;1.60;;
19525;SDS011;9907;42.676;26.348;2022-09-24T01:37:12;2.00;;;1.80;;
19525;SDS011;9907;42.676;26.348;2022-09-24T01:39:41;1.93;;;1.73;;
19525;SDS011;9907;42.676;26.348;2022-09-24T01:42:11;1.73;;;1.63;;
19525;SDS011;9907;42.676;26.348;2022-09-24T01:44:38;1.80;;;1.70;;
19525;SDS011;9907;42.676;26.348;2022-09-24T01:47:08;1.83;;;1.73;;
19525;SDS011;9907;42.676;26.348;2022-09-24T01:49:37;2.20;;;2.00;;
19525;SDS011;9907;42.676;26.348;2022-09-24T01:52:03;2.00;;;1.90;;
19525;SDS011;9907;42.676;26.348;2022-09-24T01:54:35;2.03;;;1.83;;
19525;SDS011;9907;42.676;26.348;2022-09-24T01:57:14;2.97;;;1.67;;
19525;SDS011;9907;42.676;26.348;2022-09-24T01:59:46;1.90;;;1.80;;
19525;SDS011;9907;42.676;26.348;2022-09-24T02:08:26;2.00;;;1.90;;
19525;SDS011;9907;42.676;26.348;2022-09-24T02:11:01;2.73;;;1.80;;
19525;SDS011;9907;42.676;26.348;2022-09-24T02:13:42;2.33;;;1.80;;
19525;SDS011;9907;42.676;26.348;2022-09-24T02:16:09;2.13;;;1.70;;
19525;SDS011;9907;42.676;26.348;2022-09-24T02:18:39;2.57;;;1.90;;
19525;SDS011;9907;42.676;26.348;2022-09-24T02:21:10;2.17;;;1.97;;
19525;SDS011;9907;42.676;26.348;2022-09-24T02:23:39;2.60;;;2.40;;
19525;SDS011;9907;42.676;26.348;2022-09-24T02:26:09;2.50;;;2.30;;
19525;SDS011;9907;42.676;26.348;2022-09-24T02:28:35;2.20;;;2.00;;
19525;SDS011;9907;42.676;26.348;2022-09-24T02:31:03;1.80;;;1.70;;
19525;SDS011;9907;42.676;26.348;2022-09-24T02:33:33;2.60;;;1.70;;
19525;SDS011;9907;42.676;26.348;2022-09-24T02:36:19;1.97;;;1.87;;
19525;SDS011;9907;42.676;26.348;2022-09-24T02:38:49;1.90;;;1.80;;
19525;SDS011;9907;42.676;26.348;2022-09-24T02:41:15;1.80;;;1.70;;
19525;SDS011;9907;42.676;26.348;2022-09-24T02:43:41;1.80;;;1.70;;
19525;SDS011;9907;42.676;26.348;2022-09-24T02:46:07;2.20;;;2.00;;
19525;SDS011;9907;42.676;26.348;2022-09-24T02:48:34;1.77;;;1.67;;
19525;SDS011;9907;42.676;26.348;2022-09-24T02:51:01;2.10;;;2.00;;
19525;SDS011;9907;42.676;26.348;2022-09-24T02:53:28;1.73;;;1.63;;
19525;SDS011;9907;42.676;26.348;2022-09-24T02:55:54;1.70;;;1.60;;
19525;SDS011;9907;42.676;26.348;2022-09-24T02:58:20;2.00;;;1.57;;
19525;SDS011;9907;42.676;26.348;2022-09-24T03:00:45;4.27;;;1.77;;
19525;SDS011;9907;42.676;26.348;2022-09-24T03:03:11;2.07;;;1.90;;
19525;SDS011;9907;42.676;26.348;2022-09-24T03:05:36;1.73;;;1.63;;
19525;SDS011;9907;42.676;26.348;2022-09-24T03:08:02;2.87;;;1.87;;
19525;SDS011;9907;42.676;26.348;2022-09-24T03:10:28;1.87;;;1.70;;
19525;SDS011;9907;42.676;26.348;2022-09-24T03:12:54;2.17;;;1.80;;
19525;SDS011;9907;42.676;26.348;2022-09-24T03:15:20;2.33;;;2.20;;
19525;SDS011;9907;42.676;26.348;2022-09-24T03:17:46;2.07;;;1.97;;
19525;SDS011;9907;42.676;26.348;2022-09-24T03:20:12;2.23;;;2.00;;
19525;SDS011;9907;42.676;26.348;2022-09-24T03:22:38;1.77;;;1.67;;
19525;SDS011;9907;42.676;26.348;2022-09-24T03:25:03;2.43;;;2.23;;
19525;SDS011;9907;42.676;26.348;2022-09-24T03:27:29;3.00;;;2.30;;
19525;SDS011;9907;42.676;26.348;2022-09-24T03:29:54;2.00;;;1.80;;
19525;SDS011;9907;42.676;26.348;2022-09-24T03:32:38;2.10;;;1.90;;
19525;SDS011;9907;42.676;26.348;2022-09-24T03:35:04;2.00;;;1.80;;
19525;SDS011;9907;42.676;26.348;2022-09-24T03:37:30;4.50;;;1.93;;
19525;SDS011;9907;42.676;26.348;2022-09-24T03:39:57;2.13;;;2.00;;
19525;SDS011;9907;42.676;26.348;2022-09-24T03:42:22;2.40;;;2.20;;
19525;SDS011;9907;42.676;26.348;2022-09-24T03:44:48;2.93;;;1.90;;
19525;SDS011;9907;42.676;26.348;2022-09-24T03:47:13;2.37;;;2.17;;
19525;SDS011;9907;42.676;26.348;2022-09-24T03:49:40;2.40;;;2.20;;
19525;SDS011;9907;42.676;26.348;2022-09-24T03:52:06;3.03;;;2.50;;
19525;SDS011;9907;42.676;26.348;2022-09-24T03:54:31;2.93;;;2.60;;
19525;SDS011;9907;42.676;26.348;2022-09-24T03:56:57;2.50;;;2.30;;
19525;SDS011;9907;42.676;26.348;2022-09-24T03:59:22;3.60;;;2.57;;
19525;SDS011;9907;42.676;26.348;2022-09-24T04:01:48;4.93;;;3.17;;
19525;SDS011;9907;42.676;26.348;2022-09-24T04:04:13;4.63;;;3.30;;
19525;SDS011;9907;42.676;26.348;2022-09-24T04:06:40;3.30;;;3.00;;
19525;SDS011;9907;42.676;26.348;2022-09-24T04:09:05;6.00;;;3.27;;
19525;SDS011;9907;42.676;26.348;2022-09-24T04:11:31;3.50;;;2.43;;
19525;SDS011;9907;42.676;26.348;2022-09-24T04:13:59;3.17;;;2.73;;
19525;SDS011;9907;42.676;26.348;2022-09-24T04:16:24;4.07;;;2.33;;
19525;SDS011;9907;42.676;26.348;2022-09-24T04:18:50;3.23;;;2.50;;
19525;SDS011;9907;42.676;26.348;2022-09-24T04:21:15;4.83;;;2.30;;
19525;SDS011;9907;42.676;26.348;2022-09-24T04:23:41;2.37;;;2.17;;
19525;SDS011;9907;42.676;26.348;2022-09-24T04:26:06;3.63;;;2.67;;
19525;SDS011;9907;42.676;26.348;2022-09-24T04:28:32;2.93;;;2.73;;
19525;SDS011;9907;42.676;26.348;2022-09-24T04:30:57;2.50;;;2.30;;
19525;SDS011;9907;42.676;26.348;2022-09-24T04:33:23;9.43;;;3.33;;
19525;SDS011;9907;42.676;26.348;2022-09-24T04:35:48;2.07;;;1.93;;
19525;SDS011;9907;42.676;26.348;2022-09-24T04:38:14;3.80;;;2.40;;
19525;SDS011;9907;42.676;26.348;2022-09-24T04:40:39;3.23;;;2.90;;
19525;SDS011;9907;42.676;26.348;2022-09-24T04:43:05;3.10;;;2.53;;
19525;SDS011;9907;42.676;26.348;2022-09-24T04:45:31;2.50;;;2.30;;
19525;SDS011;9907;42.676;26.348;2022-09-24T04:47:57;3.63;;;3.20;;
19525;SDS011;9907;42.676;26.348;2022-09-24T04:50:23;3.77;;;2.50;;
19525;SDS011;9907;42.676;26.348;2022-09-24T04:52:59;2.47;;;2.27;;
19525;SDS011;9907;42.676;26.348;2022-09-24T04:55:25;2.40;;;2.20;;
19525;SDS011;9907;42.676;26.348;2022-09-24T04:57:54;3.53;;;2.13;;
19525;SDS011;9907;42.676;26.348;2022-09-24T05:00:20;3.77;;;2.50;;
19525;SDS011;9907;42.676;26.348;2022-09-24T05:02:46;2.30;;;2.10;;
19525;SDS011;9907;42.676;26.348;2022-09-24T05:05:12;2.77;;;2.17;;
19525;SDS011;9907;42.676;26.348;2022-09-24T05:07:38;2.33;;;2.13;;
19525;SDS011;9907;42.676;26.348;2022-09-24T05:10:05;3.77;;;2.03;;
19525;SDS011;9907;42.676;26.348;2022-09-24T05:12:31;2.17;;;1.97;;
19525;SDS011;9907;42.676;26.348;2022-09-24T05:14:59;2.00;;;1.90;;
19525;SDS011;9907;42.676;26.348;2022-09-24T05:17:25;3.47;;;2.27;;
19525;SDS011;9907;42.676;26.348;2022-09-24T05:19:50;2.77;;;2.10;;
19525;SDS011;9907;42.676;26.348;2022-09-24T05:22:16;3.47;;;2.57;;
19525;SDS011;9907;42.676;26.348;2022-09-24T05:24:41;3.53;;;2.33;;
19525;SDS011;9907;42.676;26.348;2022-09-24T05:27:07;4.93;;;2.40;;
19525;SDS011;9907;42.676;26.348;2022-09-24T05:29:34;2.60;;;2.40;;
19525;SDS011;9907;42.676;26.348;2022-09-24T05:32:04;2.60;;;2.23;;
19525;SDS011;9907;42.676;26.348;2022-09-24T05:34:36;2.40;;;2.20;;
19525;SDS011;9907;42.676;26.348;2022-09-24T05:37:02;2.43;;;2.23;;
19525;SDS011;9907;42.676;26.348;2022-09-24T05:39:28;2.30;;;2.10;;
19525;SDS011;9907;42.676;26.348;2022-09-24T05:41:54;5.10;;;3.03;;
19525;SDS011;9907;42.676;26.348;2022-09-24T05:44:20;5.97;;;3.70;;
19525;SDS011;9907;42.676;26.348;2022-09-24T05:46:46;3.87;;;3.30;;
19525;SDS011;9907;42.676;26.348;2022-09-24T05:49:13;3.23;;;2.33;;
19525;SDS011;9907;42.676;26.348;2022-09-24T05:51:38;3.00;;;2.60;;
19525;SDS011;9907;42.676;26.348;2022-09-24T05:54:04;4.00;;;3.07;;
19525;SDS011;9907;42.676;26.348;2022-09-24T05:56:29;3.00;;;2.80;;
19525;SDS011;9907;42.676;26.348;2022-09-24T05:58:55;3.60;;;3.30;;
19525;SDS011;9907;42.676;26.348;2022-09-24T06:01:20;4.63;;;2.60;;
19525;SDS011;9907;42.676;26.348;2022-09-24T06:03:46;3.47;;;3.17;;
19525;SDS011;9907;42.676;26.348;2022-09-24T06:06:11;3.30;;;2.60;;
19525;SDS011;9907;42.676;26.348;2022-09-24T06:08:37;3.00;;;2.67;;
19525;SDS011;9907;42.676;26.348;2022-09-24T06:11:03;3.97;;;2.47;;
19525;SDS011;9907;42.676;26.348;2022-09-24T06:13:30;3.67;;;2.63;;
19525;SDS011;9907;42.676;26.348;2022-09-24T06:16:05;4.80;;;2.77;;
19525;SDS011;9907;42.676;26.348;2022-09-24T06:18:36;3.13;;;2.80;;
19525;SDS011;9907;42.676;26.348;2022-09-24T06:21:04;4.67;;;2.47;;
19525;SDS011;9907;42.676;26.348;2022-09-24T06:23:35;4.37;;;2.50;;
19525;SDS011;9907;42.676;26.348;2022-09-24T06:26:01;3.43;;;2.57;;
19525;SDS011;9907;42.676;26.348;2022-09-24T06:28:27;3.47;;;2.20;;
19525;SDS011;9907;42.676;26.348;2022-09-24T06:30:53;5.33;;;2.43;;
19525;SDS011;9907;42.676;26.348;2022-09-24T06:33:18;3.23;;;2.50;;
19525;SDS011;9907;42.676;26.348;2022-09-24T06:35:44;3.37;;;2.30;;
19525;SDS011;9907;42.676;26.348;2022-09-24T06:38:12;6.80;;;2.40;;
19525;SDS011;9907;42.676;26.348;2022-09-24T06:40:39;3.60;;;2.20;;
19525;SDS011;9907;42.676;26.348;2022-09-24T06:43:06;7.33;;;2.70;;
19525;SDS011;9907;42.676;26.348;2022-09-24T06:45:34;4.93;;;2.50;;
19525;SDS011;9907;42.676;26.348;2022-09-24T06:48:00;4.03;;;2.57;;
19525;SDS011;9907;42.676;26.348;2022-09-24T06:50:28;2.43;;;2.23;;
19525;SDS011;9907;42.676;26.348;2022-09-24T06:52:55;4.13;;;2.63;;
19525;SDS011;9907;42.676;26.348;2022-09-24T06:55:21;5.03;;;2.70;;
19525;SDS011;9907;42.676;26.348;2022-09-24T06:57:47;7.53;;;3.40;;
19525;SDS011;9907;42.676;26.348;2022-09-24T07:00:12;5.90;;;3.30;;
19525;SDS011;9907;42.676;26.348;2022-09-24T07:02:39;8.00;;;3.20;;
19525;SDS011;9907;42.676;26.348;2022-09-24T07:05:05;6.40;;;3.40;;
19525;SDS011;9907;42.676;26.348;2022-09-24T07:07:31;5.80;;;3.00;;
19525;SDS011;9907;42.676;26.348;2022-09-24T07:09:58;5.43;;;3.17;;
19525;SDS011;9907;42.676;26.348;2022-09-24T07:12:28;9.27;;;3.30;;
19525;SDS011;9907;42.676;26.348;2022-09-24T07:14:55;3.07;;;2.73;;
19525;SDS011;9907;42.676;26.348;2022-09-24T07:17:21;4.43;;;3.00;;
19525;SDS011;9907;42.676;26.348;2022-09-24T07:19:46;3.47;;;3.00;;
19525;SDS011;9907;42.676;26.348;2022-09-24T07:22:12;4.07;;;3.00;;
19525;SDS011;9907;42.676;26.348;2022-09-24T07:24:37;4.97;;;2.80;;
19525;SDS011;9907;42.676;26.348;2022-09-24T07:27:03;4.27;;;2.20;;
19525;SDS011;9907;42.676;26.348;2022-09-24T07:29:30;3.30;;;2.10;;
19525;SDS011;9907;42.676;26.348;2022-09-24T07:31:55;2.17;;;1.97;;
19525;SDS011;9907;42.676;26.348;2022-09-24T07:34:21;2.60;;;1.90;;
19525;SDS011;9907;42.676;26.348;2022-09-24T07:36:46;2.40;;;2.17;;
19525;SDS011;9907;42.676;26.348;2022-09-24T07:39:12;3.30;;;2.00;;
19525;SDS011;9907;42.676;26.348;2022-09-24T07:41:38;2.23;;;2.07;;
19525;SDS011;9907;42.676;26.348;2022-09-24T07:44:05;2.57;;;1.93;;
19525;SDS011;9907;42.676;26.348;2022-09-24T07:46:31;1.63;;;1.40;;
19525;SDS011;9907;42.676;26.348;2022-09-24T07:48:57;1.70;;;1.60;;
19525;SDS011;9907;42.676;26.348;2022-09-24T07:51:23;2.30;;;2.10;;
19525;SDS011;9907;42.676;26.348;2022-09-24T07:53:50;1.77;;;1.67;;
19525;SDS011;9907;42.676;26.348;2022-09-24T07:56:15;1.87;;;1.70;;
19525;SDS011;9907;42.676;26.348;2022-09-24T07:58:41;3.37;;;3.07;;
19525;SDS011;9907;42.676;26.348;2022-09-24T08:01:07;7.00;;;4.17;;
19525;SDS011;9907;42.676;26.348;2022-09-24T08:03:33;3.07;;;2.50;;
19525;SDS011;9907;42.676;26.348;2022-09-24T08:05:59;5.07;;;3.90;;
19525;SDS011;9907;42.676;26.348;2022-09-24T08:08:25;2.27;;;2.07;;
19525;SDS011;9907;42.676;26.348;2022-09-24T08:10:51;5.67;;;2.93;;
19525;SDS011;9907;42.676;26.348;2022-09-24T08:13:17;3.77;;;2.30;;
19525;SDS011;9907;42.676;26.348;2022-09-24T08:15:43;2.03;;;1.83;;
19525;SDS011;9907;42.676;26.348;2022-09-24T08:18:08;3.20;;;2.07;;
19525;SDS011;9907;42.676;26.348;2022-09-24T08:20:37;3.30;;;2.70;;
19525;SDS011;9907;42.676;26.348;2022-09-24T08:23:04;2.63;;;2.13;;
19525;SDS011;9907;42.676;26.348;2022-09-24T08:25:31;1.90;;;1.80;;
19525;SDS011;9907;42.676;26.348;2022-09-24T08:28:00;2.33;;;2.10;;
19525;SDS011;9907;42.676;26.348;2022-09-24T08:30:29;2.80;;;1.97;;
19525;SDS011;9907;42.676;26.348;2022-09-24T08:32:55;2.90;;;2.20;;
19525;SDS011;9907;42.676;26.348;2022-09-24T08:35:22;2.80;;;2.00;;
19525;SDS011;9907;42.676;26.348;2022-09-24T08:37:47;2.67;;;2.47;;
19525;SDS011;9907;42.676;26.348;2022-09-24T08:40:17;2.33;;;2.13;;
19525;SDS011;9907;42.676;26.348;2022-09-24T08:42:50;2.20;;;1.93;;
19525;SDS011;9907;42.676;26.348;2022-09-24T08:45:24;1.73;;;1.63;;
19525;SDS011;9907;42.676;26.348;2022-09-24T08:48:13;2.73;;;1.60;;
19525;SDS011;9907;42.676;26.348;2022-09-24T08:50:50;1.80;;;1.70;;
19525;SDS011;9907;42.676;26.348;2022-09-24T08:53:29;2.87;;;2.50;;
19525;SDS011;9907;42.676;26.348;2022-09-24T08:56:06;1.57;;;1.47;;
19525;SDS011;9907;42.676;26.348;2022-09-24T09:11:57;2.17;;;1.70;;
19525;SDS011;9907;42.676;26.348;2022-09-24T09:17:23;2.83;;;1.90;;
19525;SDS011;9907;42.676;26.348;2022-09-24T09:19:56;1.93;;;1.80;;
19525;SDS011;9907;42.676;26.348;2022-09-24T09:22:29;2.70;;;1.97;;
19525;SDS011;9907;42.676;26.348;2022-09-24T09:25:03;1.90;;;1.80;;
19525;SDS011;9907;42.676;26.348;2022-09-24T09:27:41;1.53;;;1.43;;
19525;SDS011;9907;42.676;26.348;2022-09-24T09:30:11;1.73;;;1.63;;
19525;SDS011;9907;42.676;26.348;2022-09-24T09:36:01;1.60;;;1.50;;
19525;SDS011;9907;42.676;26.348;2022-09-24T09:38:42;2.33;;;1.90;;
19525;SDS011;9907;42.676;26.348;2022-09-24T09:44:11;3.00;;;2.07;;
19525;SDS011;9907;42.676;26.348;2022-09-24T09:46:41;3.87;;;2.23;;
19525;SDS011;9907;42.676;26.348;2022-09-24T09:49:15;2.00;;;1.90;;
19525;SDS011;9907;42.676;26.348;2022-09-24T09:51:41;1.70;;;1.60;;
19525;SDS011;9907;42.676;26.348;2022-09-24T09:54:12;2.40;;;2.20;;
19525;SDS011;9907;42.676;26.348;2022-09-24T09:56:42;1.60;;;1.50;;
19525;SDS011;9907;42.676;26.348;2022-09-24T10:01:35;2.00;;;1.80;;
19525;SDS011;9907;42.676;26.348;2022-09-24T10:04:05;2.43;;;1.90;;
19525;SDS011;9907;42.676;26.348;2022-09-24T10:06:44;4.13;;;2.13;;
19525;SDS011;9907;42.676;26.348;2022-09-24T10:09:19;2.30;;;2.10;;
19525;SDS011;9907;42.676;26.348;2022-09-24T10:11:44;2.80;;;2.17;;
19525;SDS011;9907;42.676;26.348;2022-09-24T10:14:11;2.40;;;2.10;;
19525;SDS011;9907;42.676;26.348;2022-09-24T10:16:40;1.60;;;1.50;;
19525;SDS011;9907;42.676;26.348;2022-09-24T10:19:21;2.33;;;1.80;;
19525;SDS011;9907;42.676;26.348;2022-09-24T10:21:48;1.73;;;1.60;;
19525;SDS011;9907;42.676;26.348;2022-09-24T10:24:19;3.53;;;1.80;;
19525;SDS011;9907;42.676;26.348;2022-09-24T10:26:47;2.77;;;1.77;;
19525;SDS011;9907;42.676;26.348;2022-09-24T10:32:00;2.07;;;1.73;;
19525;SDS011;9907;42.676;26.348;2022-09-24T10:34:28;2.33;;;2.13;;
19525;SDS011;9907;42.676;26.348;2022-09-24T10:36:58;3.53;;;3.23;;
19525;SDS011;9907;42.676;26.348;2022-09-24T10:39:26;2.50;;;2.30;;
19525;SDS011;9907;42.676;26.348;2022-09-24T10:41:53;2.20;;;1.77;;
19525;SDS011;9907;42.676;26.348;2022-09-24T10:44:21;1.83;;;1.73;;
19525;SDS011;9907;42.676;26.348;2022-09-24T10:52:02;1.90;;;1.70;;
19525;SDS011;9907;42.676;26.348;2022-09-24T11:05:41;2.83;;;2.57;;
19525;SDS011;9907;42.676;26.348;2022-09-24T11:16:57;2.53;;;2.33;;
19525;SDS011;9907;42.676;26.348;2022-09-24T11:22:15;3.97;;;2.93;;
19525;SDS011;9907;42.676;26.348;2022-09-24T11:30:19;2.17;;;1.97;;
19525;SDS011;9907;42.676;26.348;2022-09-24T11:43:36;1.83;;;1.73;;
19525;SDS011;9907;42.676;26.348;2022-09-24T11:57:08;2.50;;;2.30;;
19525;SDS011;9907;42.676;26.348;2022-09-24T11:59:43;2.90;;;1.90;;
19525;SDS011;9907;42.676;26.348;2022-09-24T12:02:57;3.70;;;3.40;;
19525;SDS011;9907;42.676;26.348;2022-09-24T12:08:02;2.53;;;2.33;;
19525;SDS011;9907;42.676;26.348;2022-09-24T12:10:45;1.93;;;1.77;;
19525;SDS011;9907;42.676;26.348;2022-09-24T12:13:21;2.20;;;1.80;;
19525;SDS011;9907;42.676;26.348;2022-09-24T12:16:10;2.20;;;2.00;;
19525;SDS011;9907;42.676;26.348;2022-09-24T12:18:46;2.43;;;2.03;;
19525;SDS011;9907;42.676;26.348;2022-09-24T12:21:24;2.37;;;2.10;;
19525;SDS011;9907;42.676;26.348;2022-09-24T12:23:57;1.87;;;1.77;;
19525;SDS011;9907;42.676;26.348;2022-09-24T12:26:26;1.97;;;1.73;;
19525;SDS011;9907;42.676;26.348;2022-09-24T12:31:56;1.90;;;1.80;;
19525;SDS011;9907;42.676;26.348;2022-09-24T12:37:28;1.60;;;1.50;;
19525;SDS011;9907;42.676;26.348;2022-09-24T12:42:29;1.97;;;1.87;;
19525;SDS011;9907;42.676;26.348;2022-09-24T12:45:00;2.10;;;1.80;;
19525;SDS011;9907;42.676;26.348;2022-09-24T12:47:28;1.73;;;1.63;;
19525;SDS011;9907;42.676;26.348;2022-09-24T12:49:58;1.80;;;1.70;;
19525;SDS011;9907;42.676;26.348;2022-09-24T12:52:27;1.70;;;1.60;;
19525;SDS011;9907;42.676;26.348;2022-09-24T12:55:02;2.10;;;1.90;;
19525;SDS011;9907;42.676;26.348;2022-09-24T12:57:33;2.10;;;2.00;;
19525;SDS011;9907;42.676;26.348;2022-09-24T13:00:31;1.90;;;1.80;;
19525;SDS011;9907;42.676;26.348;2022-09-24T13:03:01;2.03;;;1.87;;
19525;SDS011;9907;42.676;26.348;2022-09-24T13:11:32;1.80;;;1.70;;
19525;SDS011;9907;42.676;26.348;2022-09-24T13:13:56;2.47;;;1.80;;
19525;SDS011;9907;42.676;26.348;2022-09-24T13:16:24;2.37;;;2.17;;
19525;SDS011;9907;42.676;26.348;2022-09-24T13:18:58;1.63;;;1.53;;
19525;SDS011;9907;42.676;26.348;2022-09-24T13:21:27;2.07;;;1.83;;
19525;SDS011;9907;42.676;26.348;2022-09-24T13:23:54;2.57;;;1.90;;
19525;SDS011;9907;42.676;26.348;2022-09-24T13:28:50;1.90;;;1.80;;
19525;SDS011;9907;42.676;26.348;2022-09-24T13:34:21;1.50;;;1.40;;
19525;SDS011;9907;42.676;26.348;2022-09-24T13:42:07;2.07;;;1.87;;
19525;SDS011;9907;42.676;26.348;2022-09-24T13:44:56;2.33;;;1.90;;
19525;SDS011;9907;42.676;26.348;2022-09-24T13:47:42;3.50;;;2.10;;
19525;SDS011;9907;42.676;26.348;2022-09-24T13:55:30;1.93;;;1.80;;
19525;SDS011;9907;42.676;26.348;2022-09-24T13:57:58;2.00;;;1.80;;
19525;SDS011;9907;42.676;26.348;2022-09-24T14:00:25;1.87;;;1.77;;
19525;SDS011;9907;42.676;26.348;2022-09-24T14:02:59;2.17;;;1.97;;
19525;SDS011;9907;42.676;26.348;2022-09-24T14:05:29;2.33;;;1.90;;
19525;SDS011;9907;42.676;26.348;2022-09-24T14:08:06;1.97;;;1.87;;
19525;SDS011;9907;42.676;26.348;2022-09-24T14:10:33;1.63;;;1.50;;
19525;SDS011;9907;42.676;26.348;2022-09-24T14:16:07;1.90;;;1.70;;
19525;SDS011;9907;42.676;26.348;2022-09-24T14:18:34;1.90;;;1.80;;
19525;SDS011;9907;42.676;26.348;2022-09-24T14:21:12;2.23;;;1.70;;
19525;SDS011;9907;42.676;26.348;2022-09-24T14:28:56;1.73;;;1.63;;
19525;SDS011;9907;42.676;26.348;2022-09-24T14:31:24;2.50;;;1.57;;
19525;SDS011;9907;42.676;26.348;2022-09-24T14:33:50;1.70;;;1.60;;
19525;SDS011;9907;42.676;26.348;2022-09-24T14:36:16;2.40;;;2.20;;
19525;SDS011;9907;42.676;26.348;2022-09-24T14:39:01;1.97;;;1.80;;
19525;SDS011;9907;42.676;26.348;2022-09-24T14:41:30;1.70;;;1.60;;
19525;SDS011;9907;42.676;26.348;2022-09-24T14:44:01;1.87;;;1.77;;
19525;SDS011;9907;42.676;26.348;2022-09-24T14:46:33;1.97;;;1.87;;
19525;SDS011;9907;42.676;26.348;2022-09-24T14:49:25;2.23;;;2.07;;
19525;SDS011;9907;42.676;26.348;2022-09-24T14:54:30;2.03;;;1.93;;
19525;SDS011;9907;42.676;26.348;2022-09-24T14:59:41;1.87;;;1.73;;
19525;SDS011;9907;42.676;26.348;2022-09-24T15:04:53;2.47;;;1.60;;
19525;SDS011;9907;42.676;26.348;2022-09-24T15:07:25;2.00;;;1.90;;
19525;SDS011;9907;42.676;26.348;2022-09-24T15:09:53;2.23;;;1.70;;
19525;SDS011;9907;42.676;26.348;2022-09-24T15:12:21;3.23;;;2.93;;
19525;SDS011;9907;42.676;26.348;2022-09-24T15:17:29;3.70;;;2.90;;
19525;SDS011;9907;42.676;26.348;2022-09-24T15:19:56;3.43;;;2.90;;
19525;SDS011;9907;42.676;26.348;2022-09-24T15:22:23;2.37;;;2.17;;
19525;SDS011;9907;42.676;26.348;2022-09-24T15:24:53;1.93;;;1.83;;
19525;SDS011;9907;42.676;26.348;2022-09-24T15:29:50;7.60;;;6.47;;
19525;SDS011;9907;42.676;26.348;2022-09-24T15:32:18;3.40;;;3.10;;
19525;SDS011;9907;42.676;26.348;2022-09-24T15:34:44;2.60;;;2.30;;
19525;SDS011;9907;42.676;26.348;2022-09-24T15:37:11;1.90;;;1.80;;
19525;SDS011;9907;42.676;26.348;2022-09-24T15:39:39;1.80;;;1.70;;
19525;SDS011;9907;42.676;26.348;2022-09-24T15:42:12;2.40;;;2.20;;
19525;SDS011;9907;42.676;26.348;2022-09-24T15:44:48;2.43;;;2.13;;
19525;SDS011;9907;42.676;26.348;2022-09-24T15:47:16;7.63;;;6.30;;
19525;SDS011;9907;42.676;26.348;2022-09-24T15:49:43;3.40;;;2.83;;
19525;SDS011;9907;42.676;26.348;2022-09-24T15:54:50;3.67;;;3.33;;
19525;SDS011;9907;42.676;26.348;2022-09-24T15:57:20;8.37;;;6.27;;
19525;SDS011;9907;42.676;26.348;2022-09-24T15:59:47;7.37;;;5.37;;
19525;SDS011;9907;42.676;26.348;2022-09-24T16:02:17;8.13;;;4.97;;
19525;SDS011;9907;42.676;26.348;2022-09-24T16:04:47;8.60;;;5.30;;
19525;SDS011;9907;42.676;26.348;2022-09-24T16:07:13;5.97;;;4.80;;
19525;SDS011;9907;42.676;26.348;2022-09-24T16:09:38;4.43;;;3.97;;
19525;SDS011;9907;42.676;26.348;2022-09-24T16:12:05;3.23;;;2.77;;
19525;SDS011;9907;42.676;26.348;2022-09-24T16:14:30;4.43;;;3.40;;
19525;SDS011;9907;42.676;26.348;2022-09-24T16:16:56;5.53;;;4.13;;
19525;SDS011;9907;42.676;26.348;2022-09-24T16:19:22;4.37;;;3.73;;
19525;SDS011;9907;42.676;26.348;2022-09-24T16:21:47;7.20;;;3.73;;
19525;SDS011;9907;42.676;26.348;2022-09-24T16:24:13;4.40;;;3.80;;
19525;SDS011;9907;42.676;26.348;2022-09-24T16:26:38;13.07;;;9.27;;
19525;SDS011;9907;42.676;26.348;2022-09-24T16:29:04;12.13;;;7.97;;
19525;SDS011;9907;42.676;26.348;2022-09-24T16:31:31;9.13;;;7.37;;
19525;SDS011;9907;42.676;26.348;2022-09-24T16:33:56;10.83;;;8.27;;
19525;SDS011;9907;42.676;26.348;2022-09-24T16:36:23;10.73;;;7.67;;
19525;SDS011;9907;42.676;26.348;2022-09-24T16:38:48;6.70;;;4.83;;
19525;SDS011;9907;42.676;26.348;2022-09-24T16:41:14;5.43;;;4.40;;
19525;SDS011;9907;42.676;26.348;2022-09-24T16:43:40;7.40;;;4.27;;
19525;SDS011;9907;42.676;26.348;2022-09-24T16:46:07;4.70;;;4.10;;
19525;SDS011;9907;42.676;26.348;2022-09-24T16:48:34;4.60;;;3.60;;
19525;SDS011;9907;42.676;26.348;2022-09-24T16:51:07;4.80;;;3.60;;
19525;SDS011;9907;42.676;26.348;2022-09-24T16:53:34;5.87;;;5.23;;
19525;SDS011;9907;42.676;26.348;2022-09-24T16:56:10;6.13;;;3.80;;
19525;SDS011;9907;42.676;26.348;2022-09-24T16:58:37;5.20;;;3.70;;
19525;SDS011;9907;42.676;26.348;2022-09-24T17:01:07;3.77;;;3.37;;
19525;SDS011;9907;42.676;26.348;2022-09-24T17:03:33;5.43;;;3.07;;
19525;SDS011;9907;42.676;26.348;2022-09-24T17:05:59;5.63;;;2.60;;
19525;SDS011;9907;42.676;26.348;2022-09-24T17:08:24;3.97;;;2.70;;
19525;SDS011;9907;42.676;26.348;2022-09-24T17:11:10;3.17;;;2.70;;
19525;SDS011;9907;42.676;26.348;2022-09-24T17:13:35;3.37;;;3.07;;
19525;SDS011;9907;42.676;26.348;2022-09-24T17:16:01;3.67;;;3.10;;
19525;SDS011;9907;42.676;26.348;2022-09-24T17:18:27;4.57;;;3.37;;
19525;SDS011;9907;42.676;26.348;2022-09-24T17:21:01;4.00;;;3.57;;
19525;SDS011;9907;42.676;26.348;2022-09-24T17:23:28;3.90;;;3.50;;
19525;SDS011;9907;42.676;26.348;2022-09-24T17:26:07;4.87;;;4.10;;
19525;SDS011;9907;42.676;26.348;2022-09-24T17:28:38;3.93;;;3.53;;
19525;SDS011;9907;42.676;26.348;2022-09-24T17:31:06;4.53;;;3.60;;